sensor_id;sensor_type;location;lat;lon;timestamp;P1;durP1;ratioP1;P2;durP2;ratioP2
51862;SDS011;37900;52.996;6.278;2023-03-02T00:00:39;2.55;;;1.90;;
51862;SDS011;37900;52.996;6.278;2023-03-02T00:03:06;1.73;;;1.33;;
51862;SDS011;37900;52.996;6.278;2023-03-02T00:05:32;2.45;;;1.65;;
51862;SDS011;37900;52.996;6.278;2023-03-02T00:07:59;3.08;;;1.75;;
51862;SDS011;37900;52.996;6.278;2023-03-02T00:10:25;1.80;;;1.45;;
51862;SDS011;37900;52.996;6.278;2023-03-02T00:12:52;2.60;;;1.60;;
51862;SDS011;37900;52.996;6.278;2023-03-02T00:15:18;2.38;;;1.70;;
51862;SDS011;37900;52.996;6.278;2023-03-02T00:17:43;2.35;;;1.80;;
51862;SDS011;37900;52.996;6.278;2023-03-02T00:20:09;2.20;;;1.58;;
51862;SDS011;37900;52.996;6.278;2023-03-02T00:22:41;1.92;;;1.60;;
51862;SDS011;37900;52.996;6.278;2023-03-02T00:25:08;2.40;;;1.70;;
51862;SDS011;37900;52.996;6.278;2023-03-02T00:27:34;1.80;;;1.58;;
51862;SDS011;37900;52.996;6.278;2023-03-02T00:30:00;1.60;;;1.40;;
51862;SDS011;37900;52.996;6.278;2023-03-02T00:32:26;3.17;;;1.70;;
51862;SDS011;37900;52.996;6.278;2023-03-02T00:34:52;2.72;;;1.50;;
51862;SDS011;37900;52.996;6.278;2023-03-02T00:37:17;1.63;;;1.30;;
51862;SDS011;37900;52.996;6.278;2023-03-02T00:39:43;2.60;;;1.80;;
51862;SDS011;37900;52.996;6.278;2023-03-02T00:42:09;1.83;;;1.42;;
51862;SDS011;37900;52.996;6.278;2023-03-02T00:44:34;2.45;;;1.50;;
51862;SDS011;37900;52.996;6.278;2023-03-02T00:47:00;2.35;;;1.55;;
51862;SDS011;37900;52.996;6.278;2023-03-02T00:49:26;2.28;;;1.70;;
51862;SDS011;37900;52.996;6.278;2023-03-02T00:51:52;2.90;;;1.67;;
51862;SDS011;37900;52.996;6.278;2023-03-02T00:54:18;2.00;;;1.60;;
51862;SDS011;37900;52.996;6.278;2023-03-02T00:56:44;1.85;;;1.75;;
51862;SDS011;37900;52.996;6.278;2023-03-02T00:59:10;1.60;;;1.33;;
51862;SDS011;37900;52.996;6.278;2023-03-02T01:01:56;2.17;;;1.40;;
51862;SDS011;37900;52.996;6.278;2023-03-02T01:04:30;1.90;;;1.40;;
51862;SDS011;37900;52.996;6.278;2023-03-02T01:06:58;1.83;;;1.40;;
51862;SDS011;37900;52.996;6.278;2023-03-02T01:09:29;1.50;;;1.35;;
51862;SDS011;37900;52.996;6.278;2023-03-02T01:11:55;1.60;;;1.38;;
51862;SDS011;37900;52.996;6.278;2023-03-02T01:14:20;1.50;;;1.38;;
51862;SDS011;37900;52.996;6.278;2023-03-02T01:16:46;2.30;;;1.48;;
51862;SDS011;37900;52.996;6.278;2023-03-02T01:19:13;2.45;;;1.50;;
51862;SDS011;37900;52.996;6.278;2023-03-02T01:21:39;3.67;;;1.80;;
51862;SDS011;37900;52.996;6.278;2023-03-02T01:24:05;3.23;;;1.60;;
51862;SDS011;37900;52.996;6.278;2023-03-02T01:26:32;3.55;;;1.42;;
51862;SDS011;37900;52.996;6.278;2023-03-02T01:28:58;1.65;;;1.55;;
51862;SDS011;37900;52.996;6.278;2023-03-02T01:31:25;1.73;;;1.40;;
51862;SDS011;37900;52.996;6.278;2023-03-02T01:33:51;2.17;;;1.58;;
51862;SDS011;37900;52.996;6.278;2023-03-02T01:36:18;1.83;;;1.50;;
51862;SDS011;37900;52.996;6.278;2023-03-02T01:38:44;1.77;;;1.42;;
51862;SDS011;37900;52.996;6.278;2023-03-02T01:41:10;2.42;;;1.80;;
51862;SDS011;37900;52.996;6.278;2023-03-02T01:43:36;1.95;;;1.65;;
51862;SDS011;37900;52.996;6.278;2023-03-02T01:46:04;1.73;;;1.63;;
51862;SDS011;37900;52.996;6.278;2023-03-02T01:51:14;1.60;;;1.50;;
51862;SDS011;37900;52.996;6.278;2023-03-02T01:53:42;2.20;;;1.65;;
51862;SDS011;37900;52.996;6.278;2023-03-02T01:56:13;3.13;;;1.90;;
51862;SDS011;37900;52.996;6.278;2023-03-02T01:58:41;2.15;;;1.60;;
51862;SDS011;37900;52.996;6.278;2023-03-02T02:01:10;2.75;;;1.70;;
51862;SDS011;37900;52.996;6.278;2023-03-02T02:03:41;2.33;;;1.63;;
51862;SDS011;37900;52.996;6.278;2023-03-02T02:06:16;1.88;;;1.73;;
51862;SDS011;37900;52.996;6.278;2023-03-02T02:08:45;2.08;;;1.85;;
51862;SDS011;37900;52.996;6.278;2023-03-02T02:11:12;1.95;;;1.75;;
51862;SDS011;37900;52.996;6.278;2023-03-02T02:13:38;2.20;;;1.90;;
51862;SDS011;37900;52.996;6.278;2023-03-02T02:16:05;2.10;;;1.80;;
51862;SDS011;37900;52.996;6.278;2023-03-02T02:18:31;1.80;;;1.60;;
51862;SDS011;37900;52.996;6.278;2023-03-02T02:21:02;2.65;;;2.00;;
51862;SDS011;37900;52.996;6.278;2023-03-02T02:23:38;1.90;;;1.70;;
51862;SDS011;37900;52.996;6.278;2023-03-02T02:28:57;2.13;;;1.60;;
51862;SDS011;37900;52.996;6.278;2023-03-02T02:32:01;4.65;;;2.00;;
51862;SDS011;37900;52.996;6.278;2023-03-02T02:37:22;2.13;;;1.92;;
51862;SDS011;37900;52.996;6.278;2023-03-02T02:39:52;3.03;;;1.70;;
51862;SDS011;37900;52.996;6.278;2023-03-02T02:42:32;2.45;;;1.63;;
51862;SDS011;37900;52.996;6.278;2023-03-02T02:45:03;1.73;;;1.50;;
51862;SDS011;37900;52.996;6.278;2023-03-02T02:47:31;1.92;;;1.70;;
51862;SDS011;37900;52.996;6.278;2023-03-02T02:49:56;1.83;;;1.48;;
51862;SDS011;37900;52.996;6.278;2023-03-02T02:52:23;1.85;;;1.48;;
51862;SDS011;37900;52.996;6.278;2023-03-02T02:54:52;1.80;;;1.60;;
51862;SDS011;37900;52.996;6.278;2023-03-02T02:57:19;2.55;;;1.70;;
51862;SDS011;37900;52.996;6.278;2023-03-02T02:59:52;1.55;;;1.40;;
51862;SDS011;37900;52.996;6.278;2023-03-02T03:02:25;1.80;;;1.70;;
51862;SDS011;37900;52.996;6.278;2023-03-02T03:04:52;2.25;;;2.05;;
51862;SDS011;37900;52.996;6.278;2023-03-02T03:07:27;1.95;;;1.60;;
51862;SDS011;37900;52.996;6.278;2023-03-02T03:09:56;2.67;;;2.20;;
51862;SDS011;37900;52.996;6.278;2023-03-02T03:12:30;2.08;;;1.88;;
51862;SDS011;37900;52.996;6.278;2023-03-02T03:14:57;3.22;;;1.63;;
51862;SDS011;37900;52.996;6.278;2023-03-02T03:17:24;2.00;;;1.70;;
51862;SDS011;37900;52.996;6.278;2023-03-02T03:19:49;2.22;;;2.03;;
51862;SDS011;37900;52.996;6.278;2023-03-02T03:22:15;1.77;;;1.67;;
51862;SDS011;37900;52.996;6.278;2023-03-02T03:24:42;1.95;;;1.70;;
51862;SDS011;37900;52.996;6.278;2023-03-02T03:29:36;2.10;;;1.50;;
51862;SDS011;37900;52.996;6.278;2023-03-02T03:32:04;2.03;;;1.70;;
51862;SDS011;37900;52.996;6.278;2023-03-02T03:34:32;2.08;;;1.75;;
51862;SDS011;37900;52.996;6.278;2023-03-02T03:37:05;1.95;;;1.75;;
51862;SDS011;37900;52.996;6.278;2023-03-02T03:39:32;2.25;;;1.70;;
51862;SDS011;37900;52.996;6.278;2023-03-02T03:41:58;2.55;;;2.33;;
51862;SDS011;37900;52.996;6.278;2023-03-02T03:44:24;2.25;;;1.98;;
51862;SDS011;37900;52.996;6.278;2023-03-02T03:46:50;1.85;;;1.73;;
51862;SDS011;37900;52.996;6.278;2023-03-02T03:49:16;2.55;;;1.67;;
51862;SDS011;37900;52.996;6.278;2023-03-02T03:51:41;2.38;;;2.15;;
51862;SDS011;37900;52.996;6.278;2023-03-02T03:54:07;2.00;;;1.80;;
51862;SDS011;37900;52.996;6.278;2023-03-02T03:56:35;2.28;;;1.73;;
51862;SDS011;37900;52.996;6.278;2023-03-02T03:59:04;1.75;;;1.50;;
51862;SDS011;37900;52.996;6.278;2023-03-02T04:03:59;1.38;;;1.20;;
51862;SDS011;37900;52.996;6.278;2023-03-02T04:06:26;2.53;;;1.85;;
51862;SDS011;37900;52.996;6.278;2023-03-02T04:08:51;2.92;;;1.95;;
51862;SDS011;37900;52.996;6.278;2023-03-02T04:11:17;1.88;;;1.40;;
51862;SDS011;37900;52.996;6.278;2023-03-02T04:13:43;1.90;;;1.52;;
51862;SDS011;37900;52.996;6.278;2023-03-02T04:16:08;1.75;;;1.48;;
51862;SDS011;37900;52.996;6.278;2023-03-02T04:18:34;2.05;;;1.55;;
51862;SDS011;37900;52.996;6.278;2023-03-02T04:21:00;1.77;;;1.67;;
51862;SDS011;37900;52.996;6.278;2023-03-02T04:23:25;2.35;;;2.03;;
51862;SDS011;37900;52.996;6.278;2023-03-02T04:25:51;2.63;;;1.95;;
51862;SDS011;37900;52.996;6.278;2023-03-02T04:28:17;2.08;;;1.80;;
51862;SDS011;37900;52.996;6.278;2023-03-02T04:30:43;1.90;;;1.70;;
51862;SDS011;37900;52.996;6.278;2023-03-02T04:33:09;1.92;;;1.70;;
51862;SDS011;37900;52.996;6.278;2023-03-02T04:35:35;1.75;;;1.58;;
51862;SDS011;37900;52.996;6.278;2023-03-02T04:38:00;2.10;;;1.60;;
51862;SDS011;37900;52.996;6.278;2023-03-02T04:40:26;2.28;;;1.80;;
51862;SDS011;37900;52.996;6.278;2023-03-02T04:42:53;2.13;;;1.50;;
51862;SDS011;37900;52.996;6.278;2023-03-02T04:45:19;1.88;;;1.60;;
51862;SDS011;37900;52.996;6.278;2023-03-02T04:47:45;1.42;;;1.30;;
51862;SDS011;37900;52.996;6.278;2023-03-02T04:50:11;1.75;;;1.50;;
51862;SDS011;37900;52.996;6.278;2023-03-02T04:52:38;1.52;;;1.33;;
51862;SDS011;37900;52.996;6.278;2023-03-02T04:55:04;2.15;;;1.83;;
51862;SDS011;37900;52.996;6.278;2023-03-02T04:57:31;1.85;;;1.65;;
51862;SDS011;37900;52.996;6.278;2023-03-02T04:59:56;1.60;;;1.50;;
51862;SDS011;37900;52.996;6.278;2023-03-02T05:02:22;1.70;;;1.42;;
51862;SDS011;37900;52.996;6.278;2023-03-02T05:04:48;1.85;;;1.48;;
51862;SDS011;37900;52.996;6.278;2023-03-02T05:07:14;1.92;;;1.73;;
51862;SDS011;37900;52.996;6.278;2023-03-02T05:09:40;1.73;;;1.60;;
51862;SDS011;37900;52.996;6.278;2023-03-02T05:12:06;2.13;;;1.73;;
51862;SDS011;37900;52.996;6.278;2023-03-02T05:14:31;1.60;;;1.50;;
51862;SDS011;37900;52.996;6.278;2023-03-02T05:16:57;1.70;;;1.60;;
51862;SDS011;37900;52.996;6.278;2023-03-02T05:19:23;1.83;;;1.58;;
51862;SDS011;37900;52.996;6.278;2023-03-02T05:21:49;2.03;;;1.80;;
51862;SDS011;37900;52.996;6.278;2023-03-02T05:24:15;1.65;;;1.40;;
51862;SDS011;37900;52.996;6.278;2023-03-02T05:26:41;1.63;;;1.27;;
51862;SDS011;37900;52.996;6.278;2023-03-02T05:29:07;2.63;;;1.50;;
51862;SDS011;37900;52.996;6.278;2023-03-02T05:31:34;1.95;;;1.45;;
51862;SDS011;37900;52.996;6.278;2023-03-02T05:34:07;1.73;;;1.52;;
51862;SDS011;37900;52.996;6.278;2023-03-02T05:36:34;1.50;;;1.40;;
51862;SDS011;37900;52.996;6.278;2023-03-02T05:39:00;2.15;;;1.80;;
51862;SDS011;37900;52.996;6.278;2023-03-02T05:41:26;2.20;;;1.75;;
51862;SDS011;37900;52.996;6.278;2023-03-02T05:43:52;2.05;;;1.70;;
51862;SDS011;37900;52.996;6.278;2023-03-02T05:46:18;1.65;;;1.55;;
51862;SDS011;37900;52.996;6.278;2023-03-02T05:48:43;2.33;;;1.98;;
51862;SDS011;37900;52.996;6.278;2023-03-02T05:51:10;2.60;;;1.97;;
51862;SDS011;37900;52.996;6.278;2023-03-02T05:53:36;1.98;;;1.75;;
51862;SDS011;37900;52.996;6.278;2023-03-02T05:56:02;2.55;;;1.98;;
51862;SDS011;37900;52.996;6.278;2023-03-02T05:58:28;2.08;;;1.50;;
51862;SDS011;37900;52.996;6.278;2023-03-02T06:00:54;1.92;;;1.60;;
51862;SDS011;37900;52.996;6.278;2023-03-02T06:03:19;1.88;;;1.50;;
51862;SDS011;37900;52.996;6.278;2023-03-02T06:05:45;2.50;;;1.60;;
51862;SDS011;37900;52.996;6.278;2023-03-02T06:08:15;1.52;;;1.42;;
51862;SDS011;37900;52.996;6.278;2023-03-02T06:10:42;2.10;;;1.80;;
51862;SDS011;37900;52.996;6.278;2023-03-02T06:13:08;2.58;;;1.88;;
51862;SDS011;37900;52.996;6.278;2023-03-02T06:15:34;1.83;;;1.67;;
51862;SDS011;37900;52.996;6.278;2023-03-02T06:17:59;1.67;;;1.58;;
51862;SDS011;37900;52.996;6.278;2023-03-02T06:20:25;2.22;;;1.67;;
51862;SDS011;37900;52.996;6.278;2023-03-02T06:22:51;2.25;;;1.85;;
51862;SDS011;37900;52.996;6.278;2023-03-02T06:25:18;2.70;;;1.85;;
51862;SDS011;37900;52.996;6.278;2023-03-02T06:27:45;2.13;;;1.70;;
51862;SDS011;37900;52.996;6.278;2023-03-02T06:30:14;2.55;;;2.05;;
51862;SDS011;37900;52.996;6.278;2023-03-02T06:32:41;2.08;;;1.88;;
51862;SDS011;37900;52.996;6.278;2023-03-02T06:35:08;3.65;;;2.00;;
51862;SDS011;37900;52.996;6.278;2023-03-02T06:37:34;2.50;;;1.98;;
51862;SDS011;37900;52.996;6.278;2023-03-02T06:40:00;2.25;;;1.90;;
51862;SDS011;37900;52.996;6.278;2023-03-02T06:42:26;3.17;;;1.95;;
51862;SDS011;37900;52.996;6.278;2023-03-02T06:44:52;2.38;;;1.90;;
51862;SDS011;37900;52.996;6.278;2023-03-02T06:47:19;2.70;;;1.90;;
51862;SDS011;37900;52.996;6.278;2023-03-02T06:49:46;2.55;;;2.00;;
51862;SDS011;37900;52.996;6.278;2023-03-02T06:52:12;2.75;;;2.10;;
51862;SDS011;37900;52.996;6.278;2023-03-02T06:54:38;2.83;;;2.13;;
51862;SDS011;37900;52.996;6.278;2023-03-02T06:57:05;3.10;;;2.30;;
51862;SDS011;37900;52.996;6.278;2023-03-02T06:59:30;2.25;;;1.92;;
51862;SDS011;37900;52.996;6.278;2023-03-02T07:01:56;1.70;;;1.58;;
51862;SDS011;37900;52.996;6.278;2023-03-02T07:04:22;2.55;;;2.00;;
51862;SDS011;37900;52.996;6.278;2023-03-02T07:06:47;2.83;;;2.35;;
51862;SDS011;37900;52.996;6.278;2023-03-02T07:09:13;2.72;;;2.30;;
51862;SDS011;37900;52.996;6.278;2023-03-02T07:11:39;3.08;;;2.40;;
51862;SDS011;37900;52.996;6.278;2023-03-02T07:14:04;3.67;;;2.60;;
51862;SDS011;37900;52.996;6.278;2023-03-02T07:16:31;3.95;;;2.50;;
51862;SDS011;37900;52.996;6.278;2023-03-02T07:18:57;3.88;;;2.67;;
51862;SDS011;37900;52.996;6.278;2023-03-02T07:21:23;2.83;;;2.25;;
51862;SDS011;37900;52.996;6.278;2023-03-02T07:23:49;3.50;;;2.58;;
51862;SDS011;37900;52.996;6.278;2023-03-02T07:26:15;3.30;;;2.53;;
51862;SDS011;37900;52.996;6.278;2023-03-02T07:28:40;3.15;;;2.10;;
51862;SDS011;37900;52.996;6.278;2023-03-02T07:31:07;2.65;;;2.13;;
51862;SDS011;37900;52.996;6.278;2023-03-02T07:33:35;2.90;;;2.28;;
51862;SDS011;37900;52.996;6.278;2023-03-02T07:36:01;2.70;;;2.20;;
51862;SDS011;37900;52.996;6.278;2023-03-02T07:38:27;2.70;;;2.22;;
51862;SDS011;37900;52.996;6.278;2023-03-02T07:40:53;3.13;;;2.25;;
51862;SDS011;37900;52.996;6.278;2023-03-02T07:43:18;3.38;;;2.40;;
51862;SDS011;37900;52.996;6.278;2023-03-02T07:45:45;3.35;;;2.58;;
51862;SDS011;37900;52.996;6.278;2023-03-02T07:48:10;3.63;;;2.40;;
51862;SDS011;37900;52.996;6.278;2023-03-02T07:50:36;3.92;;;2.92;;
51862;SDS011;37900;52.996;6.278;2023-03-02T07:53:02;3.22;;;2.70;;
51862;SDS011;37900;52.996;6.278;2023-03-02T07:55:27;3.30;;;2.58;;
51862;SDS011;37900;52.996;6.278;2023-03-02T07:57:53;3.80;;;2.70;;
51862;SDS011;37900;52.996;6.278;2023-03-02T08:00:19;3.33;;;2.53;;
51862;SDS011;37900;52.996;6.278;2023-03-02T08:02:45;4.17;;;2.57;;
51862;SDS011;37900;52.996;6.278;2023-03-02T08:05:11;2.83;;;2.30;;
51862;SDS011;37900;52.996;6.278;2023-03-02T08:07:38;3.00;;;2.30;;
51862;SDS011;37900;52.996;6.278;2023-03-02T08:10:05;3.75;;;2.80;;
51862;SDS011;37900;52.996;6.278;2023-03-02T08:12:31;3.08;;;2.55;;
51862;SDS011;37900;52.996;6.278;2023-03-02T08:14:56;2.33;;;2.10;;
51862;SDS011;37900;52.996;6.278;2023-03-02T08:17:22;3.58;;;2.40;;
51862;SDS011;37900;52.996;6.278;2023-03-02T08:19:48;2.72;;;2.28;;
51862;SDS011;37900;52.996;6.278;2023-03-02T08:22:14;3.33;;;2.30;;
51862;SDS011;37900;52.996;6.278;2023-03-02T08:24:39;3.38;;;2.70;;
51862;SDS011;37900;52.996;6.278;2023-03-02T08:27:06;10.07;;;3.67;;
51862;SDS011;37900;52.996;6.278;2023-03-02T08:29:32;8.43;;;3.15;;
51862;SDS011;37900;52.996;6.278;2023-03-02T08:31:58;5.38;;;3.33;;
51862;SDS011;37900;52.996;6.278;2023-03-02T08:34:24;10.23;;;3.60;;
51862;SDS011;37900;52.996;6.278;2023-03-02T08:36:50;5.35;;;3.05;;
51862;SDS011;37900;52.996;6.278;2023-03-02T08:39:17;7.40;;;3.17;;
51862;SDS011;37900;52.996;6.278;2023-03-02T08:41:42;6.03;;;3.20;;
51862;SDS011;37900;52.996;6.278;2023-03-02T08:44:08;6.68;;;3.63;;
51862;SDS011;37900;52.996;6.278;2023-03-02T08:46:35;5.00;;;3.22;;
51862;SDS011;37900;52.996;6.278;2023-03-02T08:49:00;5.80;;;2.92;;
51862;SDS011;37900;52.996;6.278;2023-03-02T08:51:26;5.95;;;2.95;;
51862;SDS011;37900;52.996;6.278;2023-03-02T08:53:53;6.82;;;4.07;;
51862;SDS011;37900;52.996;6.278;2023-03-02T08:59:10;6.47;;;3.70;;
51862;SDS011;37900;52.996;6.278;2023-03-02T09:01:37;6.28;;;3.53;;
51862;SDS011;37900;52.996;6.278;2023-03-02T09:04:04;6.60;;;3.50;;
51862;SDS011;37900;52.996;6.278;2023-03-02T09:06:33;7.10;;;3.75;;
51862;SDS011;37900;52.996;6.278;2023-03-02T09:09:00;5.57;;;3.08;;
51862;SDS011;37900;52.996;6.278;2023-03-02T09:11:26;3.78;;;3.30;;
51862;SDS011;37900;52.996;6.278;2023-03-02T09:13:52;6.63;;;3.85;;
51862;SDS011;37900;52.996;6.278;2023-03-02T09:16:21;6.35;;;4.10;;
51862;SDS011;37900;52.996;6.278;2023-03-02T09:18:49;5.38;;;3.42;;
51862;SDS011;37900;52.996;6.278;2023-03-02T09:21:15;7.65;;;4.43;;
51862;SDS011;37900;52.996;6.278;2023-03-02T09:23:41;7.15;;;4.22;;
51862;SDS011;37900;52.996;6.278;2023-03-02T09:26:07;6.13;;;3.97;;
51862;SDS011;37900;52.996;6.278;2023-03-02T09:28:33;4.90;;;3.05;;
51862;SDS011;37900;52.996;6.278;2023-03-02T09:31:01;6.13;;;4.30;;
51862;SDS011;37900;52.996;6.278;2023-03-02T09:33:29;5.35;;;3.53;;
51862;SDS011;37900;52.996;6.278;2023-03-02T09:38:22;5.13;;;3.55;;
51862;SDS011;37900;52.996;6.278;2023-03-02T09:51:30;7.03;;;3.45;;
51862;SDS011;37900;52.996;6.278;2023-03-02T09:54:10;5.22;;;3.58;;
51862;SDS011;37900;52.996;6.278;2023-03-02T09:56:46;4.20;;;3.33;;
51862;SDS011;37900;52.996;6.278;2023-03-02T10:04:46;5.15;;;3.47;;
51862;SDS011;37900;52.996;6.278;2023-03-02T10:12:41;4.22;;;3.15;;
51862;SDS011;37900;52.996;6.278;2023-03-02T10:18:20;9.68;;;3.97;;
51862;SDS011;37900;52.996;6.278;2023-03-02T10:20:55;7.63;;;3.67;;
51862;SDS011;37900;52.996;6.278;2023-03-02T10:26:19;6.55;;;3.28;;
51862;SDS011;37900;52.996;6.278;2023-03-02T10:28:54;5.72;;;3.17;;
51862;SDS011;37900;52.996;6.278;2023-03-02T10:31:31;4.93;;;2.72;;
51862;SDS011;37900;52.996;6.278;2023-03-02T10:36:28;6.45;;;2.65;;
51862;SDS011;37900;52.996;6.278;2023-03-02T10:38:56;4.65;;;3.13;;
51862;SDS011;37900;52.996;6.278;2023-03-02T10:41:29;4.47;;;3.13;;
51862;SDS011;37900;52.996;6.278;2023-03-02T10:44:12;4.90;;;3.15;;
51862;SDS011;37900;52.996;6.278;2023-03-02T10:46:45;4.35;;;2.83;;
51862;SDS011;37900;52.996;6.278;2023-03-02T10:54:31;5.40;;;2.95;;
51862;SDS011;37900;52.996;6.278;2023-03-02T10:57:02;4.88;;;3.10;;
51862;SDS011;37900;52.996;6.278;2023-03-02T11:04:41;4.90;;;2.83;;
51862;SDS011;37900;52.996;6.278;2023-03-02T11:07:07;3.65;;;2.83;;
51862;SDS011;37900;52.996;6.278;2023-03-02T11:09:39;5.47;;;2.83;;
51862;SDS011;37900;52.996;6.278;2023-03-02T11:12:11;4.07;;;2.70;;
51862;SDS011;37900;52.996;6.278;2023-03-02T11:14:39;5.78;;;2.92;;
51862;SDS011;37900;52.996;6.278;2023-03-02T11:17:22;4.20;;;2.55;;
51862;SDS011;37900;52.996;6.278;2023-03-02T11:19:58;4.95;;;2.88;;
51862;SDS011;37900;52.996;6.278;2023-03-02T11:25:07;5.22;;;3.03;;
51862;SDS011;37900;52.996;6.278;2023-03-02T11:27:40;4.55;;;2.65;;
51862;SDS011;37900;52.996;6.278;2023-03-02T11:30:10;4.25;;;2.85;;
51862;SDS011;37900;52.996;6.278;2023-03-02T11:37:52;4.18;;;2.67;;
51862;SDS011;37900;52.996;6.278;2023-03-02T11:40:54;4.10;;;2.33;;
51862;SDS011;37900;52.996;6.278;2023-03-02T11:43:14;4.55;;;2.55;;
51862;SDS011;37900;52.996;6.278;2023-03-02T11:45:41;4.45;;;3.03;;
51862;SDS011;37900;52.996;6.278;2023-03-02T11:51:17;5.88;;;2.80;;
51862;SDS011;37900;52.996;6.278;2023-03-02T11:56:24;5.65;;;2.65;;
51862;SDS011;37900;52.996;6.278;2023-03-02T11:58:54;3.80;;;2.30;;
51862;SDS011;37900;52.996;6.278;2023-03-02T12:01:23;3.47;;;2.58;;
51862;SDS011;37900;52.996;6.278;2023-03-02T12:08:46;5.68;;;2.50;;
51862;SDS011;37900;52.996;6.278;2023-03-02T12:13:42;2.80;;;2.20;;
51862;SDS011;37900;52.996;6.278;2023-03-02T12:16:22;4.15;;;2.50;;
51862;SDS011;37900;52.996;6.278;2023-03-02T12:21:56;4.47;;;2.65;;
51862;SDS011;37900;52.996;6.278;2023-03-02T12:24:26;4.40;;;2.50;;
51862;SDS011;37900;52.996;6.278;2023-03-02T12:27:04;4.18;;;2.25;;
51862;SDS011;37900;52.996;6.278;2023-03-02T12:32:42;4.18;;;2.22;;
51862;SDS011;37900;52.996;6.278;2023-03-02T12:35:14;6.55;;;2.40;;
51862;SDS011;37900;52.996;6.278;2023-03-02T12:44:14;2.92;;;2.53;;
51862;SDS011;37900;52.996;6.278;2023-03-02T12:46:55;3.10;;;2.53;;
51862;SDS011;37900;52.996;6.278;2023-03-02T12:51:54;5.55;;;2.38;;
51862;SDS011;37900;52.996;6.278;2023-03-02T12:54:26;4.68;;;2.15;;
51862;SDS011;37900;52.996;6.278;2023-03-02T12:57:03;3.28;;;2.42;;
51862;SDS011;37900;52.996;6.278;2023-03-02T12:59:40;2.92;;;2.28;;
51862;SDS011;37900;52.996;6.278;2023-03-02T13:04:40;3.83;;;2.10;;
51862;SDS011;37900;52.996;6.278;2023-03-02T13:07:13;3.85;;;2.00;;
51862;SDS011;37900;52.996;6.278;2023-03-02T13:09:47;2.92;;;1.95;;
51862;SDS011;37900;52.996;6.278;2023-03-02T13:12:17;5.57;;;2.28;;
51862;SDS011;37900;52.996;6.278;2023-03-02T13:14:44;3.97;;;2.30;;
51862;SDS011;37900;52.996;6.278;2023-03-02T13:17:20;4.88;;;2.78;;
51862;SDS011;37900;52.996;6.278;2023-03-02T13:19:51;4.60;;;2.20;;
51862;SDS011;37900;52.996;6.278;2023-03-02T13:22:17;4.00;;;2.67;;
51862;SDS011;37900;52.996;6.278;2023-03-02T13:25:01;2.90;;;2.00;;
51862;SDS011;37900;52.996;6.278;2023-03-02T13:27:30;3.40;;;2.00;;
51862;SDS011;37900;52.996;6.278;2023-03-02T13:30:07;2.88;;;2.13;;
51862;SDS011;37900;52.996;6.278;2023-03-02T13:32:54;2.92;;;2.10;;
51862;SDS011;37900;52.996;6.278;2023-03-02T13:35:28;6.55;;;2.50;;
51862;SDS011;37900;52.996;6.278;2023-03-02T13:37:57;7.45;;;2.50;;
51862;SDS011;37900;52.996;6.278;2023-03-02T13:40:30;11.02;;;2.60;;
51862;SDS011;37900;52.996;6.278;2023-03-02T13:43:15;7.85;;;2.63;;
51862;SDS011;37900;52.996;6.278;2023-03-02T13:45:49;15.32;;;5.10;;
51862;SDS011;37900;52.996;6.278;2023-03-02T13:48:19;13.68;;;6.22;;
51862;SDS011;37900;52.996;6.278;2023-03-02T13:50:53;22.50;;;7.15;;
51862;SDS011;37900;52.996;6.278;2023-03-02T13:53:25;16.42;;;7.90;;
51862;SDS011;37900;52.996;6.278;2023-03-02T13:55:54;23.90;;;9.90;;
51862;SDS011;37900;52.996;6.278;2023-03-02T13:58:21;27.38;;;9.00;;
51862;SDS011;37900;52.996;6.278;2023-03-02T14:00:49;18.95;;;7.82;;
51862;SDS011;37900;52.996;6.278;2023-03-02T14:03:28;16.10;;;8.25;;
51862;SDS011;37900;52.996;6.278;2023-03-02T14:05:55;21.83;;;7.57;;
51862;SDS011;37900;52.996;6.278;2023-03-02T14:10:49;18.08;;;7.43;;
51862;SDS011;37900;52.996;6.278;2023-03-02T14:13:20;13.70;;;6.55;;
51862;SDS011;37900;52.996;6.278;2023-03-02T14:16:08;16.95;;;7.30;;
51862;SDS011;37900;52.996;6.278;2023-03-02T14:18:38;17.27;;;7.35;;
51862;SDS011;37900;52.996;6.278;2023-03-02T14:21:05;19.95;;;7.15;;
51862;SDS011;37900;52.996;6.278;2023-03-02T14:23:35;16.67;;;7.50;;
51862;SDS011;37900;52.996;6.278;2023-03-02T14:28:37;20.02;;;7.07;;
51862;SDS011;37900;52.996;6.278;2023-03-02T14:31:03;16.23;;;7.15;;
51862;SDS011;37900;52.996;6.278;2023-03-02T14:33:28;15.68;;;6.80;;
51862;SDS011;37900;52.996;6.278;2023-03-02T14:35:55;14.18;;;6.38;;
51862;SDS011;37900;52.996;6.278;2023-03-02T14:38:23;14.65;;;6.65;;
51862;SDS011;37900;52.996;6.278;2023-03-02T14:40:51;12.48;;;6.85;;
51862;SDS011;37900;52.996;6.278;2023-03-02T14:43:16;13.65;;;6.00;;
51862;SDS011;37900;52.996;6.278;2023-03-02T14:45:43;13.73;;;5.95;;
51862;SDS011;37900;52.996;6.278;2023-03-02T14:48:09;12.50;;;5.85;;
51862;SDS011;37900;52.996;6.278;2023-03-02T14:50:36;17.42;;;5.75;;
51862;SDS011;37900;52.996;6.278;2023-03-02T14:53:05;14.63;;;5.88;;
51862;SDS011;37900;52.996;6.278;2023-03-02T14:55:36;12.27;;;6.07;;
51862;SDS011;37900;52.996;6.278;2023-03-02T14:58:09;14.13;;;5.55;;
51862;SDS011;37900;52.996;6.278;2023-03-02T15:00:38;12.05;;;5.60;;
51862;SDS011;37900;52.996;6.278;2023-03-02T15:03:04;16.52;;;5.53;;
51862;SDS011;37900;52.996;6.278;2023-03-02T15:05:30;14.63;;;5.40;;
51862;SDS011;37900;52.996;6.278;2023-03-02T15:07:56;9.98;;;5.28;;
51862;SDS011;37900;52.996;6.278;2023-03-02T15:10:22;10.90;;;5.50;;
51862;SDS011;37900;52.996;6.278;2023-03-02T15:12:48;11.27;;;4.90;;
51862;SDS011;37900;52.996;6.278;2023-03-02T15:15:15;12.10;;;4.63;;
51862;SDS011;37900;52.996;6.278;2023-03-02T15:17:41;11.75;;;4.50;;
51862;SDS011;37900;52.996;6.278;2023-03-02T15:20:07;8.90;;;4.70;;
51862;SDS011;37900;52.996;6.278;2023-03-02T15:22:40;8.80;;;5.20;;
51862;SDS011;37900;52.996;6.278;2023-03-02T15:25:06;9.40;;;4.30;;
51862;SDS011;37900;52.996;6.278;2023-03-02T15:27:32;7.68;;;4.57;;
51862;SDS011;37900;52.996;6.278;2023-03-02T15:29:58;10.07;;;5.13;;
51862;SDS011;37900;52.996;6.278;2023-03-02T15:32:24;9.77;;;4.43;;
51862;SDS011;37900;52.996;6.278;2023-03-02T15:34:50;6.90;;;3.85;;
51862;SDS011;37900;52.996;6.278;2023-03-02T15:37:16;8.23;;;4.22;;
51862;SDS011;37900;52.996;6.278;2023-03-02T15:39:41;11.30;;;3.90;;
51862;SDS011;37900;52.996;6.278;2023-03-02T15:42:08;5.67;;;3.63;;
51862;SDS011;37900;52.996;6.278;2023-03-02T15:44:34;8.93;;;3.78;;
51862;SDS011;37900;52.996;6.278;2023-03-02T15:46:59;7.55;;;4.15;;
51862;SDS011;37900;52.996;6.278;2023-03-02T15:49:26;8.43;;;4.45;;
51862;SDS011;37900;52.996;6.278;2023-03-02T15:51:56;10.50;;;3.95;;
51862;SDS011;37900;52.996;6.278;2023-03-02T15:54:26;11.30;;;4.82;;
51862;SDS011;37900;52.996;6.278;2023-03-02T15:56:52;9.43;;;4.70;;
51862;SDS011;37900;52.996;6.278;2023-03-02T15:59:18;7.95;;;3.95;;
51862;SDS011;37900;52.996;6.278;2023-03-02T16:01:45;8.75;;;3.97;;
51862;SDS011;37900;52.996;6.278;2023-03-02T16:04:11;5.63;;;4.00;;
51862;SDS011;37900;52.996;6.278;2023-03-02T16:06:37;7.50;;;3.78;;
51862;SDS011;37900;52.996;6.278;2023-03-02T16:09:03;8.95;;;3.47;;
51862;SDS011;37900;52.996;6.278;2023-03-02T16:11:29;7.15;;;3.60;;
51862;SDS011;37900;52.996;6.278;2023-03-02T16:13:55;6.70;;;3.70;;
51862;SDS011;37900;52.996;6.278;2023-03-02T16:16:21;4.65;;;3.50;;
51862;SDS011;37900;52.996;6.278;2023-03-02T16:18:50;5.82;;;3.47;;
51862;SDS011;37900;52.996;6.278;2023-03-02T16:21:20;8.63;;;4.18;;
51862;SDS011;37900;52.996;6.278;2023-03-02T16:23:46;7.82;;;3.53;;
51862;SDS011;37900;52.996;6.278;2023-03-02T16:26:13;4.78;;;3.67;;
51862;SDS011;37900;52.996;6.278;2023-03-02T16:28:43;5.93;;;4.10;;
51862;SDS011;37900;52.996;6.278;2023-03-02T16:31:10;4.70;;;3.50;;
51862;SDS011;37900;52.996;6.278;2023-03-02T16:33:38;5.55;;;3.33;;